Time;durP1;ratioP1;P1;durP2;ratioP2;P2;SDS_P1;SDS_P2;PMS_P1;PMS_P2;Temp;Humidity;BMP_temperature;BMP_pressure;BME280_temperature;BME280_humidity;BME280_pressure;Samples;Min_cycle;Max_cycle;Signal;HPM_P1;HPM_P2
2023/05/12 00:02:24;;;;;;;30.33;16.20;;;18.50;99.90;;;;;;5031135;28;20052;-74
2023/05/12 00:04:50;;;;;;;34.00;17.50;;;14.90;99.90;;;;;;5030619;28;20385;-75
2023/05/12 00:07:15;;;;;;;33.67;17.42;;;14.70;99.90;;;;;;5013621;28;20045;-74
2023/05/12 00:09:41;;;;;;;35.53;17.23;;;20.10;99.90;;;;;;5015369;28;20354;-75
2023/05/12 00:12:08;;;;;;;44.22;17.92;;;18.70;99.90;;;;;;5013880;28;20045;-76
2023/05/12 00:14:37;;;;;;;42.50;19.80;;;19.30;99.90;;;;;;5032948;28;20128;-75
2023/05/12 00:17:05;;;;;;;37.72;17.95;;;16.70;99.90;;;;;;5030564;28;20481;-74
2023/05/12 00:19:32;;;;;;;47.17;19.42;;;20.90;99.90;;;;;;5030542;28;20037;-75
2023/05/12 00:21:58;;;;;;;35.50;17.33;;;14.20;99.90;;;;;;5014378;28;20036;-77
2023/05/12 00:24:23;;;;;;;33.72;17.60;;;16.60;99.90;;;;;;5015051;28;20732;-73
2023/05/12 00:26:49;;;;;;;36.78;16.58;;;20.80;99.90;;;;;;5030307;28;20041;-73
2023/05/12 00:29:15;;;;;;;34.47;17.05;;;19.10;99.90;;;;;;5008384;28;20488;-74
2023/05/12 00:31:40;;;;;;;35.03;17.67;;;19.60;99.90;;;;;;5030702;28;20128;-75
2023/05/12 00:34:06;;;;;;;35.03;16.75;;;16.40;99.90;;;;;;5030397;28;20037;-73
2023/05/12 00:36:32;;;;;;;30.52;16.77;;;15.80;99.90;;;;;;5012778;28;20037;-75
2023/05/12 00:38:57;;;;;;;30.67;15.50;;;15.20;99.90;;;;;;5028074;28;20033;-74
2023/05/12 00:41:23;;;;;;;30.08;16.13;;;18.60;99.90;;;;;;5030587;28;20110;-74
2023/05/12 00:43:49;;;;;;;35.13;16.92;;;14.10;99.90;;;;;;5029320;28;20946;-74
2023/05/12 00:46:16;;;;;;;35.10;17.45;;;21.50;99.90;;;;;;5023040;28;20056;-75
2023/05/12 00:48:43;;;;;;;37.58;18.40;;;14.60;99.90;;;;;;5030592;28;20051;-74
2023/05/12 00:51:09;;;;;;;32.05;16.55;;;15.80;99.90;;;;;;5029380;28;20045;-74
2023/05/12 00:53:35;;;;;;;35.22;18.02;;;18.20;99.90;;;;;;5029909;28;20033;-74
2023/05/12 00:56:01;;;;;;;31.95;15.68;;;14.10;99.90;;;;;;5029085;28;20452;-75
2023/05/12 00:58:26;;;;;;;33.03;15.25;;;15.10;99.90;;;;;;5031304;28;20073;-75
2023/05/12 01:00:52;;;;;;;33.28;16.42;;;15.70;99.90;;;;;;5024757;28;20037;-77
2023/05/12 01:03:18;;;;;;;28.35;15.18;;;21.70;99.90;;;;;;5012780;28;20049;-75
2023/05/12 01:06:07;;;;;;;32.20;15.73;;;19.60;99.90;;;;;;5028452;28;20132;-77
2023/05/12 01:08:34;;;;;;;26.73;15.13;;;19.20;99.90;;;;;;5030189;28;20047;-74
2023/05/12 01:11:00;;;;;;;27.02;15.95;;;19.10;99.90;;;;;;5030430;28;20569;-74
2023/05/12 01:13:26;;;;;;;29.70;15.05;;;20.90;99.90;;;;;;5030269;28;20078;-75
2023/05/12 01:15:54;;;;;;;30.00;14.43;;;19.60;99.90;;;;;;5029661;28;20033;-75
2023/05/12 01:18:22;;;;;;;27.88;14.73;;;14.20;99.90;;;;;;5012783;28;20041;-76
2023/05/12 01:20:49;;;;;;;25.65;14.63;;;19.10;99.90;;;;;;5012663;28;20556;-75
2023/05/12 01:23:18;;;;;;;30.67;15.18;;;20.60;99.90;;;;;;5029731;28;20054;-75
2023/05/12 01:25:46;;;;;;;30.50;16.05;;;15.60;99.90;;;;;;5021494;28;20593;-74
2023/05/12 01:28:12;;;;;;;28.88;15.07;;;14.60;99.90;;;;;;5008316;28;20044;-73
2023/05/12 01:30:40;;;;;;;35.38;16.52;;;17.80;99.90;;;;;;5027716;28;20106;-73
2023/05/12 01:33:07;;;;;;;35.97;18.90;;;20.10;99.90;;;;;;5017246;28;20438;-73
2023/05/12 01:35:33;;;;;;;36.63;17.95;;;21.70;99.90;;;;;;5009884;28;20177;-74
2023/05/12 01:37:59;;;;;;;33.38;19.27;;;14.90;99.90;;;;;;4993305;28;20063;-76
2023/05/12 01:40:25;;;;;;;37.70;19.88;;;14.60;99.90;;;;;;5025127;28;20461;-74
2023/05/12 01:42:51;;;;;;;42.20;18.50;;;22.20;99.90;;;;;;5026061;28;20511;-76
2023/05/12 01:45:17;;;;;;;39.85;20.38;;;15.00;99.90;;;;;;5025056;28;20084;-75
2023/05/12 01:47:43;;;;;;;38.05;19.17;;;20.80;99.90;;;;;;4996197;28;20080;-76
2023/05/12 01:50:09;;;;;;;38.28;19.17;;;16.10;99.90;;;;;;5012374;28;20059;-76
2023/05/12 01:52:35;;;;;;;31.00;17.38;;;20.40;99.90;;;;;;5023883;28;20048;-76
2023/05/12 01:55:00;;;;;;;38.53;18.52;;;18.00;99.90;;;;;;5023957;28;20083;-75
2023/05/12 01:57:26;;;;;;;34.97;18.10;;;17.30;99.90;;;;;;5024777;28;20072;-77
2023/05/12 01:59:52;;;;;;;39.33;18.77;;;15.40;99.90;;;;;;5007189;28;20040;-74
2023/05/12 02:02:17;;;;;;;35.75;17.92;;;19.60;99.90;;;;;;5005922;28;20421;-74
2023/05/12 02:04:43;;;;;;;36.45;18.17;;;20.40;99.90;;;;;;5017334;28;20047;-75
2023/05/12 02:07:09;;;;;;;34.13;16.75;;;15.20;99.90;;;;;;5036746;28;20055;-75
2023/05/12 02:09:35;;;;;;;32.70;18.05;;;19.60;99.90;;;;;;5021692;28;20052;-77
2023/05/12 02:12:03;;;;;;;38.60;19.08;;;17.00;99.90;;;;;;5017976;28;20405;-76
2023/05/12 02:14:28;;;;;;;36.58;18.63;;;19.20;99.90;;;;;;5013861;28;20374;-74
2023/05/12 02:16:55;;;;;;;35.67;17.98;;;18.70;99.90;;;;;;5022922;28;20053;-74
2023/05/12 02:19:20;;;;;;;39.85;19.83;;;16.10;99.90;;;;;;5028014;28;20048;-76
2023/05/12 02:21:49;;;;;;;34.88;17.42;;;19.60;99.90;;;;;;4995012;28;20037;-75
2023/05/12 02:24:15;;;;;;;36.47;19.08;;;16.00;99.90;;;;;;5027054;28;20049;-75
2023/05/12 02:26:41;;;;;;;38.15;18.27;;;15.80;99.90;;;;;;5022681;28;20048;-77
2023/05/12 02:29:07;;;;;;;37.03;18.67;;;18.20;99.90;;;;;;5022806;28;20151;-77
2023/05/12 02:31:33;;;;;;;35.78;18.15;;;18.40;99.90;;;;;;5010404;28;20037;-75
2023/05/12 02:34:00;;;;;;;35.50;17.75;;;17.20;99.90;;;;;;5003300;28;20375;-73
2023/05/12 02:36:25;;;;;;;35.97;17.52;;;20.00;99.90;;;;;;5004313;28;20409;-76
2023/05/12 02:38:51;;;;;;;32.72;16.88;;;16.00;99.90;;;;;;5029955;28;20037;-75
2023/05/12 02:41:17;;;;;;;35.03;17.23;;;15.30;99.90;;;;;;5027885;28;20122;-76
2023/05/12 02:43:42;;;;;;;35.03;17.40;;;18.80;99.90;;;;;;5015542;28;20047;-75
2023/05/12 02:46:08;;;;;;;38.75;16.38;;;18.30;99.90;;;;;;5014479;28;20053;-75
2023/05/12 02:48:34;;;;;;;32.17;17.13;;;17.30;99.90;;;;;;5027478;28;20049;-74
2023/05/12 02:50:59;;;;;;;32.45;16.88;;;20.60;99.90;;;;;;5031839;28;20381;-74
2023/05/12 02:53:26;;;;;;;33.55;17.05;;;15.70;99.90;;;;;;5032271;28;20040;-75
2023/05/12 02:55:52;;;;;;;38.05;18.85;;;20.00;99.90;;;;;;5030352;28;20056;-76
2023/05/12 02:58:18;;;;;;;30.17;16.25;;;17.40;99.90;;;;;;5029020;28;20032;-76
2023/05/12 03:00:44;;;;;;;36.53;16.75;;;20.40;99.90;;;;;;4996073;28;20405;-76
2023/05/12 03:03:10;;;;;;;29.33;16.40;;;18.50;99.90;;;;;;5028505;28;20045;-75
2023/05/12 03:05:35;;;;;;;29.05;16.30;;;20.10;99.90;;;;;;5047263;28;20059;-73
2023/05/12 03:08:01;;;;;;;40.15;17.65;;;15.70;99.90;;;;;;5011995;28;20045;-73
2023/05/12 03:10:27;;;;;;;36.78;18.55;;;20.50;99.90;;;;;;5010882;28;20505;-75
2023/05/12 03:12:52;;;;;;;34.97;17.55;;;17.40;99.90;;;;;;5031915;28;20033;-75
2023/05/12 03:15:18;;;;;;;37.90;17.55;;;20.20;99.90;;;;;;5014192;28;20523;-76
2023/05/12 03:17:44;;;;;;;33.65;17.27;;;18.00;99.90;;;;;;5029477;28;20036;-78
2023/05/12 03:20:10;;;;;;;44.08;19.05;;;15.30;99.90;;;;;;5010823;28;20064;-75
2023/05/12 03:22:35;;;;;;;38.30;18.80;;;18.40;99.90;;;;;;5009160;28;20079;-76
2023/05/12 03:25:03;;;;;;;41.50;17.95;;;15.60;99.90;;;;;;5029541;28;20044;-75
2023/05/12 03:27:32;;;;;;;33.33;17.92;;;16.50;99.90;;;;;;5031380;28;20125;-73
2023/05/12 03:30:03;;;;;;;39.53;17.23;;;19.90;99.90;;;;;;5026303;28;20037;-76
2023/05/12 03:32:29;;;;;;;33.97;18.20;;;18.20;99.90;;;;;;5030995;28;20559;-73
2023/05/12 03:34:55;;;;;;;39.88;16.85;;;17.00;99.90;;;;;;5011934;28;20033;-75
2023/05/12 03:37:21;;;;;;;35.33;17.83;;;20.40;99.90;;;;;;5030909;28;20102;-75
2023/05/12 03:39:47;;;;;;;33.55;17.83;;;15.40;99.90;;;;;;5028448;28;20405;-75
2023/05/12 03:42:13;;;;;;;40.17;18.42;;;17.40;99.90;;;;;;5013515;28;20049;-72
2023/05/12 03:44:39;;;;;;;35.65;18.30;;;18.30;99.90;;;;;;5034457;28;20106;-75
2023/05/12 03:47:05;;;;;;;37.72;18.85;;;19.70;99.90;;;;;;4996805;28;20052;-75
2023/05/12 03:49:31;;;;;;;36.47;18.13;;;17.50;99.90;;;;;;5028093;28;20052;-75
2023/05/12 03:51:56;;;;;;;38.45;18.52;;;15.70;99.90;;;;;;4995541;28;20037;-74
2023/05/12 03:54:22;;;;;;;42.58;20.35;;;18.40;99.90;;;;;;4998244;28;20041;-74
2023/05/12 03:56:48;;;;;;;38.13;18.73;;;15.50;99.90;;;;;;4997170;28;20033;-74
2023/05/12 03:59:13;;;;;;;35.95;18.67;;;15.80;99.90;;;;;;5024083;28;20578;-73
2023/05/12 04:01:39;;;;;;;40.92;19.55;;;15.30;99.90;;;;;;5011765;28;20033;-76
2023/05/12 04:04:05;;;;;;;38.30;19.52;;;17.80;99.90;;;;;;5025930;28;20041;-79
2023/05/12 04:06:31;;;;;;;41.00;18.85;;;20.40;99.90;;;;;;5029953;28;20120;-75
2023/05/12 04:08:56;;;;;;;39.17;19.95;;;18.30;99.90;;;;;;5032272;28;20086;-77
2023/05/12 04:11:22;;;;;;;39.55;19.55;;;17.50;99.90;;;;;;5013146;28;20055;-74
2023/05/12 04:13:48;;;;;;;37.22;18.20;;;19.90;99.90;;;;;;4995568;28;20641;-77
2023/05/12 04:16:14;;;;;;;33.97;18.17;;;16.20;99.90;;;;;;5010987;28;20080;-75
2023/05/12 04:18:39;;;;;;;38.30;19.67;;;19.40;99.90;;;;;;5028221;28;20037;-78
2023/05/12 04:21:05;;;;;;;39.13;18.15;;;20.30;99.90;;;;;;5011685;28;20029;-74
2023/05/12 04:23:31;;;;;;;38.15;19.10;;;16.10;99.90;;;;;;5028205;28;20045;-73
2023/05/12 04:25:56;;;;;;;41.83;19.27;;;16.50;99.90;;;;;;5029066;28;20037;-74
2023/05/12 04:28:22;;;;;;;39.97;19.90;;;20.30;99.90;;;;;;5028865;28;20041;-75
2023/05/12 04:30:48;;;;;;;36.75;18.75;;;18.80;99.90;;;;;;5011529;28;20103;-74
2023/05/12 04:33:13;;;;;;;44.22;20.15;;;16.30;99.90;;;;;;5024943;28;20049;-75
2023/05/12 04:35:39;;;;;;;39.60;21.00;;;20.50;99.90;;;;;;5009637;28;20505;-73
2023/05/12 04:38:05;;;;;;;47.58;21.80;;;20.50;99.90;;;;;;5010310;28;20037;-74
2023/05/12 04:40:31;;;;;;;37.97;19.23;;;16.20;99.90;;;;;;5011792;28;20510;-74
2023/05/12 04:42:56;;;;;;;39.17;19.92;;;19.10;99.90;;;;;;5011449;28;20116;-74
2023/05/12 04:45:22;;;;;;;38.13;19.40;;;18.00;99.90;;;;;;5024088;28;20049;-77
2023/05/12 04:47:48;;;;;;;41.63;20.40;;;17.70;99.90;;;;;;5009755;28;20046;-76
2023/05/12 04:50:14;;;;;;;40.95;19.30;;;17.80;99.90;;;;;;4992667;28;20072;-75
2023/05/12 04:52:39;;;;;;;43.75;21.92;;;15.70;99.90;;;;;;5009298;28;20052;-77
2023/05/12 04:55:06;;;;;;;45.50;19.20;;;15.70;99.90;;;;;;5006076;28;20116;-76
2023/05/12 04:57:32;;;;;;;42.45;19.38;;;19.40;99.90;;;;;;5024315;28;20522;-73
2023/05/12 04:59:58;;;;;;;45.53;20.90;;;19.10;99.90;;;;;;5009435;28;20163;-72
2023/05/12 05:02:24;;;;;;;46.63;20.98;;;19.40;99.90;;;;;;5024317;28;20045;-75
2023/05/12 05:04:51;;;;;;;38.05;20.42;;;19.80;99.90;;;;;;5020133;28;20614;-75
2023/05/12 05:07:17;;;;;;;42.05;20.30;;;16.30;99.90;;;;;;4989299;28;20083;-73
2023/05/12 05:09:42;;;;;;;45.70;20.95;;;16.50;99.90;;;;;;5024879;28;20122;-75
2023/05/12 05:12:08;;;;;;;47.33;20.60;;;16.70;99.90;;;;;;5023601;28;20045;-72
2023/05/12 05:14:34;;;;;;;46.33;21.50;;;20.70;99.90;;;;;;5010576;28;20041;-76
2023/05/12 05:17:00;;;;;;;41.83;20.92;;;17.40;99.90;;;;;;5023011;28;20056;-74
2023/05/12 05:19:26;;;;;;;41.28;19.65;;;20.90;99.90;;;;;;4993376;28;20572;-74
2023/05/12 05:21:52;;;;;;;44.00;20.20;;;19.10;99.90;;;;;;5006651;28;21484;-75
2023/05/12 05:24:18;;;;;;;38.85;19.98;;;19.00;99.90;;;;;;4991234;28;20037;-72
2023/05/12 05:26:44;;;;;;;41.53;21.40;;;20.80;99.90;;;;;;5004973;28;20052;-73
2023/05/12 05:29:10;;;;;;;43.10;21.05;;;16.00;99.90;;;;;;5009743;28;20033;-74
2023/05/12 05:31:36;;;;;;;42.78;21.02;;;20.90;99.90;;;;;;5026498;28;20472;-75
2023/05/12 05:34:01;;;;;;;48.58;21.13;;;16.70;99.90;;;;;;5007671;28;20167;-74
2023/05/12 05:36:28;;;;;;;44.05;20.75;;;17.90;99.90;;;;;;5021118;28;21474;-76
2023/05/12 05:38:54;;;;;;;42.60;21.35;;;16.30;99.90;;;;;;5024071;28;20041;-78
2023/05/12 05:41:21;;;;;;;39.13;19.85;;;19.10;99.90;;;;;;5007094;28;20049;-70
2023/05/12 05:44:45;;;;;;;51.17;22.02;;;19.30;99.90;;;;;;5035848;27;20107;-74
2023/05/12 05:47:11;;;;;;;42.05;21.17;;;17.70;99.90;;;;;;4982641;28;20038;-73
2023/05/12 05:49:36;;;;;;;45.28;23.27;;;19.00;99.90;;;;;;5007859;28;20497;-74
2023/05/12 05:52:02;;;;;;;43.33;21.05;;;21.30;99.90;;;;;;4984705;28;20045;-76
2023/05/12 05:54:28;;;;;;;42.35;21.08;;;17.20;99.90;;;;;;4979809;28;20121;-74
2023/05/12 05:56:54;;;;;;;40.60;22.33;;;15.90;99.90;;;;;;5002135;28;20107;-75
2023/05/12 05:59:19;;;;;;;38.97;21.42;;;18.50;99.90;;;;;;4992518;28;20048;-74
2023/05/12 06:01:45;;;;;;;40.78;21.98;;;20.10;99.90;;;;;;4984288;28;20386;-75
2023/05/12 06:04:11;;;;;;;41.20;23.02;;;17.80;99.90;;;;;;4969392;28;20443;-73
2023/05/12 06:06:36;;;;;;;40.75;22.02;;;16.30;99.90;;;;;;5012747;28;20042;-75
2023/05/12 06:09:02;;;;;;;41.88;21.73;;;20.20;99.90;;;;;;4975932;28;20026;-76
2023/05/12 06:11:28;;;;;;;38.08;22.08;;;16.00;99.90;;;;;;5014967;28;20065;-77
2023/05/12 06:13:54;;;;;;;45.65;23.30;;;17.80;99.90;;;;;;4984557;28;20042;-73
2023/05/12 06:16:19;;;;;;;39.60;22.50;;;21.90;99.90;;;;;;4999867;28;20059;-73
2023/05/12 06:18:45;;;;;;;46.75;23.25;;;16.70;99.90;;;;;;4994851;28;20668;-72
2023/05/12 06:21:11;;;;;;;44.50;23.27;;;20.10;99.90;;;;;;4998028;28;20056;-73
2023/05/12 06:23:36;;;;;;;42.22;23.52;;;22.20;99.90;;;;;;4982720;28;20046;-73
2023/05/12 06:26:02;;;;;;;44.25;24.20;;;17.10;99.90;;;;;;4977527;28;20034;-76
2023/05/12 06:28:28;;;;;;;40.47;23.70;;;20.70;99.90;;;;;;5001756;28;20041;-73
2023/05/12 06:30:54;;;;;;;49.33;24.38;;;16.80;99.90;;;;;;5001129;28;20037;-75
2023/05/12 06:33:20;;;;;;;42.20;25.85;;;22.90;99.90;;;;;;5001958;28;20584;-73
2023/05/12 06:35:45;;;;;;;40.20;24.23;;;17.80;99.90;;;;;;4964064;28;20065;-73
2023/05/12 06:38:11;;;;;;;39.00;23.90;;;17.10;99.90;;;;;;5000713;28;20044;-72
2023/05/12 06:40:37;;;;;;;44.03;25.77;;;19.40;99.90;;;;;;4961173;28;20049;-74
2023/05/12 06:43:02;;;;;;;38.30;23.30;;;16.70;99.90;;;;;;4979370;28;20115;-73
2023/05/12 06:45:29;;;;;;;47.50;26.80;;;18.20;99.90;;;;;;4978262;28;20038;-72
2023/05/12 06:47:56;;;;;;;48.05;29.75;;;23.20;99.90;;;;;;4995315;28;20174;-75
2023/05/12 06:50:22;;;;;;;47.72;29.25;;;23.10;99.90;;;;;;4985793;28;20040;-73
2023/05/12 06:52:47;;;;;;;50.35;30.83;;;18.70;99.90;;;;;;4976550;28;20041;-72
2023/05/12 06:55:18;;;;;;;48.50;32.05;;;17.30;99.90;;;;;;4962300;28;20041;-73
2023/05/12 06:57:44;;;;;;;51.70;33.70;;;23.00;99.90;;;;;;5011590;28;20045;-75
2023/05/12 07:00:10;;;;;;;54.80;34.35;;;20.70;99.90;;;;;;4979339;28;20034;-74
2023/05/12 07:02:35;;;;;;;53.97;33.97;;;17.30;99.90;;;;;;4985742;28;20049;-76
2023/05/12 07:05:01;;;;;;;50.03;33.45;;;18.40;99.90;;;;;;4959471;28;20042;-72
2023/05/12 07:07:27;;;;;;;54.55;34.17;;;23.80;99.90;;;;;;5005685;28;20056;-74
2023/05/12 07:09:52;;;;;;;53.28;34.90;;;24.00;99.90;;;;;;4971920;28;20070;-73
2023/05/12 07:12:18;;;;;;;52.45;35.58;;;22.70;99.90;;;;;;4983759;28;20135;-71
2023/05/12 07:14:44;;;;;;;54.70;36.17;;;24.30;99.90;;;;;;4985259;28;20038;-74
2023/05/12 07:17:09;;;;;;;54.65;34.50;;;20.50;99.90;;;;;;4984422;28;20041;-77
2023/05/12 07:19:35;;;;;;;53.17;35.20;;;17.70;99.90;;;;;;4968086;28;20045;-73
2023/05/12 07:22:01;;;;;;;48.55;33.45;;;17.40;99.90;;;;;;4994762;28;20040;-74
2023/05/12 07:24:27;;;;;;;52.42;35.03;;;18.80;99.90;;;;;;5000758;28;20038;-75
2023/05/12 07:26:53;;;;;;;50.28;34.00;;;19.40;99.90;;;;;;4996477;28;20038;-76
2023/05/12 07:29:18;;;;;;;47.75;33.45;;;17.70;99.90;;;;;;4974910;28;20038;-75
2023/05/12 07:31:44;;;;;;;46.25;34.35;;;18.70;99.90;;;;;;4975561;28;20046;-76
2023/05/12 07:34:10;;;;;;;48.75;35.20;;;19.60;99.90;;;;;;4949775;28;20095;-73
2023/05/12 07:36:36;;;;;;;47.90;33.92;;;19.10;99.90;;;;;;5026293;28;20043;-75
2023/05/12 07:39:01;;;;;;;47.15;34.60;;;25.00;99.90;;;;;;5009265;28;20050;-76
2023/05/12 07:41:27;;;;;;;46.38;33.38;;;24.30;99.90;;;;;;4966851;28;20049;-74
2023/05/12 07:43:53;;;;;;;46.92;32.00;;;23.80;99.90;;;;;;4962396;28;20123;-75
2023/05/12 07:46:18;;;;;;;46.45;33.50;;;18.70;99.90;;;;;;4975338;28;20042;-74
2023/05/12 07:48:44;;;;;;;43.80;32.13;;;21.80;99.90;;;;;;4979467;28;20038;-75
2023/05/12 07:51:10;;;;;;;37.22;29.52;;;19.80;99.90;;;;;;4997613;28;20129;-72
2023/05/12 07:53:36;;;;;;;48.30;33.83;;;20.30;99.90;;;;;;4981153;28;20494;-77
2023/05/12 07:56:02;;;;;;;41.30;30.77;;;18.90;99.90;;;;;;5011049;28;20102;-77
2023/05/12 07:58:28;;;;;;;41.92;32.20;;;20.90;99.90;;;;;;4980904;28;20045;-79
2023/05/12 08:00:53;;;;;;;41.70;30.35;;;19.30;99.90;;;;;;4965864;28;20178;-79
2023/05/12 08:03:19;;;;;;;41.97;32.63;;;21.10;99.90;;;;;;4986229;28;20041;-80
2023/05/12 08:05:45;;;;;;;43.15;32.28;;;20.70;99.90;;;;;;4975297;28;20030;-80
2023/05/12 08:08:15;;;;;;;44.35;31.20;;;23.20;99.90;;;;;;5001321;28;20587;-79
2023/05/12 08:10:42;;;;;;;41.67;31.85;;;23.30;99.90;;;;;;5010306;28;20045;-80
2023/05/12 08:13:08;;;;;;;40.92;30.75;;;23.70;99.90;;;;;;4968754;28;20061;-79
2023/05/12 08:15:33;;;;;;;39.67;31.48;;;20.40;99.90;;;;;;4992001;28;20042;-79
2023/05/12 08:17:59;;;;;;;44.67;32.30;;;20.80;99.90;;;;;;4979715;28;20159;-80
2023/05/12 08:20:25;;;;;;;40.05;31.00;;;20.70;99.90;;;;;;4982088;28;20462;-78
2023/05/12 08:22:51;;;;;;;40.45;32.03;;;20.90;99.90;;;;;;4955267;28;20064;-78
2023/05/12 08:25:17;;;;;;;39.22;30.50;;;20.90;99.90;;;;;;5050468;28;20046;-78
2023/05/12 08:27:43;;;;;;;41.65;30.80;;;23.90;99.90;;;;;;4977095;28;20125;-80
2023/05/12 08:30:09;;;;;;;37.08;28.80;;;24.10;99.90;;;;;;4985762;28;20379;-78
2023/05/12 08:32:35;;;;;;;36.28;29.88;;;19.80;99.90;;;;;;4958351;28;20034;-77
2023/05/12 08:35:01;;;;;;;34.63;28.67;;;22.00;99.90;;;;;;4998324;28;20084;-79
2023/05/12 08:37:27;;;;;;;34.10;27.58;;;23.50;99.90;;;;;;4993650;28;20117;-78
2023/05/12 08:39:52;;;;;;;31.30;26.90;;;20.30;99.90;;;;;;4995370;28;20041;-78
2023/05/12 08:42:54;;;;;;;34.20;28.08;;;20.40;99.90;;;;;;4994825;28;20034;-79
2023/05/12 08:45:22;;;;;;;31.70;26.77;;;21.10;99.90;;;;;;4978621;28;20051;-79
2023/05/12 08:47:50;;;;;;;30.05;24.92;;;23.30;99.90;;;;;;4982598;28;20046;-79
2023/05/12 08:50:18;;;;;;;30.05;26.00;;;22.10;99.90;;;;;;4985528;28;20130;-78
2023/05/12 08:52:44;;;;;;;29.08;24.27;;;21.50;99.90;;;;;;4986934;28;20045;-80
2023/05/12 08:55:12;;;;;;;32.92;25.08;;;23.00;99.90;;;;;;4998802;28;20050;-79
2023/05/12 08:57:39;;;;;;;29.77;24.88;;;21.60;99.90;;;;;;4978941;28;20123;-72
2023/05/12 09:00:07;;;;;;;29.25;25.95;;;21.90;99.90;;;;;;5014296;28;20509;-75
2023/05/12 09:02:36;;;;;;;25.02;22.17;;;22.40;99.90;;;;;;4959684;28;20046;-73
2023/05/12 09:05:02;;;;;;;26.15;23.25;;;24.10;99.90;;;;;;5008113;28;20042;-74
2023/05/12 09:07:27;;;;;;;26.38;23.50;;;22.30;99.90;;;;;;5060651;28;20086;-74
2023/05/12 09:09:57;;;;;;;25.65;22.90;;;22.90;99.90;;;;;;4985146;28;20126;-73
2023/05/12 09:12:25;;;;;;;28.83;22.42;;;24.00;99.90;;;;;;5021402;28;20045;-78
2023/05/12 09:15:02;;;;;;;25.08;22.33;;;22.90;99.90;;;;;;4989664;28;20508;-74
2023/05/12 09:17:28;;;;;;;27.92;23.65;;;24.10;99.90;;;;;;4970822;28;20056;-74
2023/05/12 09:19:54;;;;;;;25.98;23.10;;;23.90;99.90;;;;;;5002638;28;20577;-73
2023/05/12 09:22:30;;;;;;;25.52;22.83;;;24.90;99.90;;;;;;4983950;28;20055;-73
2023/05/12 09:24:56;;;;;;;32.83;25.30;;;24.40;99.90;;;;;;4966995;28;20045;-74
2023/05/12 09:27:26;;;;;;;28.27;25.27;;;23.50;99.90;;;;;;4983708;28;20044;-73
2023/05/12 09:29:52;;;;;;;23.60;21.10;;;23.80;99.90;;;;;;4971194;28;20607;-75
2023/05/12 09:32:28;;;;;;;24.92;20.85;;;24.70;99.90;;;;;;4972092;28;20128;-74
2023/05/12 09:34:53;;;;;;;23.92;21.45;;;23.70;99.90;;;;;;5015634;28;20046;-75
2023/05/12 09:37:19;;;;;;;25.77;22.98;;;24.00;99.90;;;;;;4970815;28;20049;-74
2023/05/12 09:39:45;;;;;;;25.05;21.58;;;24.50;99.90;;;;;;4988023;28;20046;-74
2023/05/12 09:42:11;;;;;;;24.88;22.00;;;24.20;99.90;;;;;;4953433;28;20500;-75
2023/05/12 09:44:38;;;;;;;25.10;21.35;;;24.40;99.90;;;;;;5019155;28;20081;-77
2023/05/12 09:47:08;;;;;;;24.33;21.67;;;24.70;99.90;;;;;;4987083;28;20429;-77
2023/05/12 09:49:34;;;;;;;20.10;18.20;;;24.80;99.90;;;;;;5020508;28;20046;-75
2023/05/12 09:52:03;;;;;;;19.02;17.10;;;24.70;99.90;;;;;;4960946;28;20042;-77
2023/05/12 09:54:29;;;;;;;17.27;15.48;;;24.90;99.90;;;;;;4981745;28;20486;-78
2023/05/12 09:57:01;;;;;;;17.25;15.57;;;25.20;99.90;;;;;;4965865;28;20050;-75
2023/05/12 09:59:35;;;;;;;18.15;16.45;;;24.90;99.90;;;;;;4970731;28;20128;-78
2023/05/12 10:02:04;;;;;;;18.48;15.68;;;25.30;99.90;;;;;;4987689;28;20045;-75
2023/05/12 10:04:38;;;;;;;17.98;16.20;;;26.10;99.90;;;;;;5020870;28;20050;-75
2023/05/12 10:07:07;;;;;;;18.77;16.85;;;26.00;99.90;;;;;;4983728;28;20038;-76
2023/05/12 10:09:38;;;;;;;20.70;18.52;;;25.80;99.90;;;;;;4972563;28;20590;-74
2023/05/12 10:12:05;;;;;;;20.23;18.13;;;25.50;99.90;;;;;;4987010;28;20077;-78
2023/05/12 10:14:31;;;;;;;18.02;16.23;;;25.70;99.90;;;;;;4987273;28;20130;-77
2023/05/12 10:16:58;;;;;;;15.40;14.00;;;25.50;99.90;;;;;;4971919;28;20046;-75
2023/05/12 10:19:25;;;;;;;16.38;14.75;;;25.60;99.90;;;;;;5015953;28;20125;-75
2023/05/12 10:21:52;;;;;;;15.68;14.13;;;26.20;99.90;;;;;;5002880;28;20777;-76
2023/05/12 10:24:19;;;;;;;15.90;14.50;;;26.10;99.90;;;;;;4967962;28;20042;-75
2023/05/12 10:26:46;;;;;;;16.27;14.68;;;26.10;99.90;;;;;;5000888;28;20046;-75
2023/05/12 10:29:13;;;;;;;15.77;14.35;;;25.80;99.90;;;;;;4969315;28;20061;-74
2023/05/12 10:31:38;;;;;;;13.20;12.00;;;26.40;99.90;;;;;;4963440;28;20033;-76
2023/05/12 10:34:05;;;;;;;13.63;12.25;;;26.90;99.90;;;;;;4990164;28;20054;-75
2023/05/12 10:36:41;;;;;;;15.98;14.38;;;26.80;99.90;;;;;;5022972;28;20516;-75
2023/05/12 10:39:08;;;;;;;15.20;13.70;;;26.70;99.90;;;;;;5022185;28;20136;-76
2023/05/12 10:41:34;;;;;;;16.10;14.60;;;26.50;99.90;;;;;;5012220;28;20148;-75
2023/05/12 10:44:00;;;;;;;14.50;13.05;;;26.30;99.90;;;;;;4971215;28;20228;-74
2023/05/12 10:46:27;;;;;;;14.68;13.32;;;27.00;99.90;;;;;;4971705;28;20155;-76
2023/05/12 10:48:59;;;;;;;14.60;13.30;;;27.10;99.90;;;;;;4969985;28;20038;-76
2023/05/12 10:51:30;;;;;;;14.60;13.05;;;26.40;99.90;;;;;;4975243;28;20054;-77
2023/05/12 10:54:06;;;;;;;13.40;12.10;;;26.90;99.90;;;;;;4974147;28;20124;-77
2023/05/12 10:56:38;;;;;;;18.10;13.75;;;27.30;99.90;;;;;;4989802;28;20050;-75
2023/05/12 10:59:15;;;;;;;14.02;12.73;;;27.10;99.90;;;;;;5023026;28;20041;-76
2023/05/12 11:01:54;;;;;;;13.00;11.80;;;27.20;99.90;;;;;;4984573;28;20077;-75
2023/05/12 11:04:21;;;;;;;15.35;13.85;;;27.30;99.90;;;;;;4970793;28;20042;-76
2023/05/12 11:06:57;;;;;;;12.30;11.10;;;26.90;99.90;;;;;;5017219;28;20046;-75
2023/05/12 11:09:23;;;;;;;11.88;10.77;;;26.80;99.90;;;;;;4974705;28;20065;-78
2023/05/12 11:11:49;;;;;;;12.13;10.98;;;27.10;99.90;;;;;;4967236;28;20568;-79
2023/05/12 11:14:16;;;;;;;11.02;10.00;;;26.90;99.90;;;;;;5048394;28;20034;-75
2023/05/12 11:16:43;;;;;;;9.43;8.50;;;27.40;99.90;;;;;;4969248;28;20057;-77
2023/05/12 11:19:09;;;;;;;10.77;9.77;;;27.30;99.90;;;;;;4967565;28;20457;-79
2023/05/12 11:21:35;;;;;;;8.55;7.82;;;26.90;99.90;;;;;;4971371;28;20132;-76
2023/05/12 11:24:01;;;;;;;8.77;7.97;;;26.90;99.90;;;;;;4974253;28;20110;-75
2023/05/12 11:26:28;;;;;;;9.50;8.60;;;26.80;99.90;;;;;;4989429;28;20041;-78
2023/05/12 11:28:56;;;;;;;8.82;8.02;;;26.80;99.90;;;;;;4971013;28;20069;-75
2023/05/12 11:31:22;;;;;;;8.93;8.13;;;26.90;99.90;;;;;;4973569;28;20075;-75
2023/05/12 11:33:49;;;;;;;8.85;8.05;;;27.20;99.90;;;;;;4989046;28;20057;-76
2023/05/12 11:36:20;;;;;;;8.80;8.00;;;27.40;99.90;;;;;;4987403;28;20046;-75
2023/05/12 11:38:50;;;;;;;8.90;8.15;;;27.30;99.90;;;;;;4997037;28;20073;-76
2023/05/12 11:41:25;;;;;;;7.72;7.03;;;27.20;99.90;;;;;;4987600;28;20378;-74
2023/05/12 11:43:51;;;;;;;7.80;7.10;;;27.90;99.90;;;;;;4989867;28;20054;-74
2023/05/12 11:46:24;;;;;;;7.40;6.70;;;28.00;99.90;;;;;;4989416;28;20038;-78
2023/05/12 11:48:57;;;;;;;6.78;6.18;;;28.30;99.90;;;;;;4985428;28;20038;-75
2023/05/12 11:51:24;;;;;;;6.87;6.27;;;28.30;99.90;;;;;;4972991;28;20086;-75
2023/05/12 11:53:51;;;;;;;7.72;7.03;;;28.40;99.90;;;;;;4973832;28;20624;-75
2023/05/12 11:56:19;;;;;;;6.30;5.70;;;28.10;99.90;;;;;;4999778;28;20045;-74
2023/05/12 11:58:53;;;;;;;5.97;5.47;;;28.40;99.90;;;;;;4986819;28;20038;-75
2023/05/12 12:01:19;;;;;;;6.35;5.47;;;28.50;82.60;;;;;;4999819;28;20715;-77
2023/05/12 12:03:50;;;;;;;6.20;5.50;;;28.70;99.90;;;;;;4973005;28;20124;-74
2023/05/12 12:06:17;;;;;;;5.55;4.65;;;27.70;99.90;;;;;;4989397;28;20049;-76
2023/05/12 12:08:50;;;;;;;7.45;6.70;;;28.40;99.90;;;;;;4988811;28;20037;-76
2023/05/12 12:11:21;;;;;;;6.30;5.70;;;28.00;99.90;;;;;;4988793;28;20038;-78
2023/05/12 12:13:56;;;;;;;5.28;4.72;;;28.10;99.90;;;;;;4984541;28;20075;-74
2023/05/12 12:16:30;;;;;;;5.75;4.40;;;28.40;99.90;;;;;;4989044;28;20065;-74
2023/05/12 12:18:56;;;;;;;5.55;5.00;;;28.60;52.00;;;;;;4972924;28;20037;-75
2023/05/12 12:21:23;;;;;;;5.25;4.85;;;27.90;47.20;;;;;;5004215;28;20060;-76
2023/05/12 12:23:49;;;;;;;4.97;4.47;;;27.80;61.10;;;;;;4967312;28;20034;-73
2023/05/12 12:26:16;;;;;;;4.30;3.80;;;28.50;49.20;;;;;;4973170;28;20042;-76
2023/05/12 12:28:44;;;;;;;6.47;4.35;;;28.80;61.00;;;;;;4987822;28;20026;-74